Flight Track Log - Related Links

Times and Time Zones

All times are in EDT time to prevent confusion due to time zone crossing. See the N973HR flight status page for this flight to view local times or setup timezone preferences in your user account.

Time Position Orientation Groundspeed Altitude Reporting Facility
EDT Latitude Longitude Course Direction KTS MPH feet Rate Location/Type
01:08PM 27.0667 -82.4500 283° West 292 336 400  Level Tampa TRACON
01:09PM 27.0833 -82.5333 283° West 213 245 5,300 3,796 Climbing Tampa TRACON
01:10PM 27.0367 -82.5367 184° South 119 137 9,700 3,535 Climbing Miami Center
01:11PM 26.9758 -82.4894 145° Southeast 176 203 12,900 1,650 Climbing Miami Center
01:12PM 26.9083 -82.4047 132° Southeast 286 329 13,000 50 Climbing Miami Center
01:13PM 26.8603 -82.2931 116° Southeast 337 388 13,000  Level Miami Center
01:14PM 26.8181 -82.1933 115° Southeast 353 406 13,000  Level Miami Center
01:15PM 26.8133 -82.0953 93° East 327 376 13,000  Level Miami Center
01:16PM 26.8003 -81.9947 98° East 332 382 13,000 50 Level Miami Center
01:17PM 26.7994 -81.8969 91° East 327 376 13,100  Climbing Miami Center
01:18PM 26.7608 -81.8094 116° Southeast 311 358 13,000 -50 Descending Miami Center
01:19PM 26.7136 -81.7236 122° Southeast 308 354 13,000  Level Miami Center
01:20PM 26.6414 -81.6300 131° Southeast 338 389 13,000  Level Miami Center
01:21PM 26.5711 -81.5436 132° Southeast 379 436 13,000  Level Miami Center
01:22PM 26.4928 -81.4478 132° Southeast 401 461 13,000  Level Miami Center
01:23PM 26.4244 -81.3617 132° Southeast 405 466 13,000  Level Miami Center
01:24PM 26.3522 -81.2708 132° Southeast 405 466 13,000 -220 Level Miami Center
01:25PM 26.2814 -81.1942 136° Southeast 353 406 12,600 -1,561 Descending Miami Center
01:26PM 26.2128 -81.1058 131° Southeast 298 343 9,800 -2,107 Descending Miami Center
01:27PM 26.1728 -81.0511 129° Southeast 305 351 8,000 -974 Descending Miami Center
01:28PM 26.1222 -80.9869 131° Southeast 282 325 7,900 -550 Descending Miami Center
01:29PM 26.1119 -80.9103 98° East 243 280 6,900 -950 Descending Miami Center
01:30PM 26.1331 -80.8300 74° East 238 274 6,000 -950 Descending Miami Center
01:31PM 26.1414 -80.7494 83° East 252 290 5,000 -1,500 Descending Miami Center
01:32PM 26.1497 -80.6664 84° East 257 296 3,000 -1,000 Descending Miami Center
01:33PM 26.1581 -80.5903 83° East 246 283 3,000 -150 Level Miami Center
01:34PM 26.1639 -80.5281 84° East 219 252 2,700 -358 Descending Miami Center
01:36PM 26.1656 -80.4586 88° East 178 205 2,200 -222 Descending Miami Center
01:37PM 26.1731 -80.4078 81° East 164 189 2,200  Level Miami Center
01:38PM 26.1764 -80.3617 85° East 144 166 2,200  Level Miami Center
01:39PM 26.1814 -80.3178 83° East 145 167 2,200 -313 Level Miami Center
01:40PM 26.1869 -80.2669 83° East 126 145 1,500 -639 Descending Miami Center
01:41PM 26.1897 -80.2325 85° East 127 146 900 -655 Descending Miami Center
01:42PM 26.1928 -80.1931 85° East 128 147 300 -590 Descending Miami Center
01:44PM 26.1833 -80.1667 336° Northwest  Level FlightAware Approximate

Login

Don't have an account? Register now (free) for customized features, flight alerts, and more!